Terminal Aerodrome Forecast
Issued by NWS

Home | Current Version | Previous Version | Text Only | Print | Product List | Glossary Off
Versions: 1 2 3 4 5 6 7 8 9 10 11 12 13 14 15 16 17 18 19 20 21 22 23 24 25 26 27 28 29 30 31 32 33 34 35 36 37

000
FTUS43 KLOT 310800 AAA
TAFORD
TAF AMD
KORD 310833Z 3109/0112 21005KT P6SM OVC100
     FM311500 22010KT P6SM FEW150 BKN250
     FM311700 25009KT P6SM BKN040 BKN150
     FM312300 26005KT P6SM OVC025
     FM010200 02006KT 1 1/2SM -SN SCT007 OVC015
     FM010600 04010KT 1 1/2SM -SN BKN007 OVC015
     FM010900 05012G21KT 3/4SM -SN OVC006=

USA.gov is the U.S. government's official web portal to all federal, state and local government web resources and services.